sensor_id;sensor_type;location;lat;lon;timestamp;temperature;humidity
76263;DHT22;65080;50.908;6.916;2023-05-07T00:01:26;16.30;90.90
76263;DHT22;65080;50.908;6.916;2023-05-07T00:03:55;16.30;91.00
76263;DHT22;65080;50.908;6.916;2023-05-07T00:06:23;16.30;91.00
76263;DHT22;65080;50.908;6.916;2023-05-07T00:08:55;16.30;91.00
76263;DHT22;65080;50.908;6.916;2023-05-07T00:11:24;16.30;91.10
76263;DHT22;65080;50.908;6.916;2023-05-07T00:13:52;16.30;91.00
76263;DHT22;65080;50.908;6.916;2023-05-07T00:16:21;16.20;90.90
76263;DHT22;65080;50.908;6.916;2023-05-07T00:18:49;16.30;90.90
76263;DHT22;65080;50.908;6.916;2023-05-07T00:21:17;16.30;90.80
76263;DHT22;65080;50.908;6.916;2023-05-07T00:23:46;16.30;90.80
76263;DHT22;65080;50.908;6.916;2023-05-07T00:26:16;16.30;91.10
76263;DHT22;65080;50.908;6.916;2023-05-07T00:28:45;16.30;90.80
76263;DHT22;65080;50.908;6.916;2023-05-07T00:31:13;16.30;90.80
76263;DHT22;65080;50.908;6.916;2023-05-07T00:33:42;16.30;90.80
76263;DHT22;65080;50.908;6.916;2023-05-07T00:36:10;16.20;90.80
76263;DHT22;65080;50.908;6.916;2023-05-07T00:38:38;16.20;90.80
76263;DHT22;65080;50.908;6.916;2023-05-07T00:41:07;16.20;90.80
76263;DHT22;65080;50.908;6.916;2023-05-07T00:43:37;16.30;90.80
76263;DHT22;65080;50.908;6.916;2023-05-07T00:46:05;16.20;90.80
76263;DHT22;65080;50.908;6.916;2023-05-07T00:48:34;16.20;90.70
76263;DHT22;65080;50.908;6.916;2023-05-07T00:51:03;16.20;90.70
76263;DHT22;65080;50.908;6.916;2023-05-07T00:53:31;16.20;90.60
76263;DHT22;65080;50.908;6.916;2023-05-07T00:56:00;16.20;90.60
76263;DHT22;65080;50.908;6.916;2023-05-07T00:58:29;16.20;90.50
76263;DHT22;65080;50.908;6.916;2023-05-07T01:00:59;16.20;90.50
76263;DHT22;65080;50.908;6.916;2023-05-07T01:03:28;16.20;90.40
76263;DHT22;65080;50.908;6.916;2023-05-07T01:05:57;16.10;90.40
76263;DHT22;65080;50.908;6.916;2023-05-07T01:08:28;16.10;90.40
76263;DHT22;65080;50.908;6.916;2023-05-07T01:10:57;16.10;90.30
76263;DHT22;65080;50.908;6.916;2023-05-07T01:13:27;16.10;90.30
76263;DHT22;65080;50.908;6.916;2023-05-07T01:15:56;16.10;90.30
76263;DHT22;65080;50.908;6.916;2023-05-07T01:18:25;16.10;90.20
76263;DHT22;65080;50.908;6.916;2023-05-07T01:20:55;16.10;90.10
76263;DHT22;65080;50.908;6.916;2023-05-07T01:23:27;16.10;90.00
76263;DHT22;65080;50.908;6.916;2023-05-07T01:25:56;16.10;89.80
76263;DHT22;65080;50.908;6.916;2023-05-07T01:28:25;16.00;89.60
76263;DHT22;65080;50.908;6.916;2023-05-07T01:30:58;16.10;89.60
76263;DHT22;65080;50.908;6.916;2023-05-07T01:33:30;16.10;89.40
76263;DHT22;65080;50.908;6.916;2023-05-07T01:36:00;16.10;89.20
76263;DHT22;65080;50.908;6.916;2023-05-07T01:38:32;16.10;89.20
76263;DHT22;65080;50.908;6.916;2023-05-07T01:41:01;16.10;89.30
76263;DHT22;65080;50.908;6.916;2023-05-07T01:43:30;16.20;89.40
76263;DHT22;65080;50.908;6.916;2023-05-07T01:45:59;16.10;89.40
76263;DHT22;65080;50.908;6.916;2023-05-07T01:48:28;16.20;89.50
76263;DHT22;65080;50.908;6.916;2023-05-07T01:50:57;16.20;89.50
76263;DHT22;65080;50.908;6.916;2023-05-07T01:53:27;16.10;89.50
76263;DHT22;65080;50.908;6.916;2023-05-07T01:55:57;16.10;89.60
76263;DHT22;65080;50.908;6.916;2023-05-07T01:58:25;16.10;89.70
76263;DHT22;65080;50.908;6.916;2023-05-07T02:00:53;16.10;89.70
76263;DHT22;65080;50.908;6.916;2023-05-07T02:03:21;16.10;89.60
76263;DHT22;65080;50.908;6.916;2023-05-07T02:05:50;16.10;89.70
76263;DHT22;65080;50.908;6.916;2023-05-07T02:08:18;16.10;89.90
76263;DHT22;65080;50.908;6.916;2023-05-07T02:10:47;16.10;89.90
76263;DHT22;65080;50.908;6.916;2023-05-07T02:13:18;16.10;89.90
76263;DHT22;65080;50.908;6.916;2023-05-07T02:15:47;16.10;89.90
76263;DHT22;65080;50.908;6.916;2023-05-07T02:18:17;16.10;89.80
76263;DHT22;65080;50.908;6.916;2023-05-07T02:20:46;16.00;89.60
76263;DHT22;65080;50.908;6.916;2023-05-07T02:23:14;16.00;89.60
76263;DHT22;65080;50.908;6.916;2023-05-07T02:25:43;16.00;89.60
76263;DHT22;65080;50.908;6.916;2023-05-07T02:28:12;16.00;89.60
76263;DHT22;65080;50.908;6.916;2023-05-07T02:30:42;15.90;89.60
76263;DHT22;65080;50.908;6.916;2023-05-07T02:33:10;15.90;89.50
76263;DHT22;65080;50.908;6.916;2023-05-07T02:35:41;15.90;89.40
76263;DHT22;65080;50.908;6.916;2023-05-07T02:38:09;15.90;89.30
76263;DHT22;65080;50.908;6.916;2023-05-07T02:40:38;15.80;89.10
76263;DHT22;65080;50.908;6.916;2023-05-07T02:43:08;15.90;89.10
76263;DHT22;65080;50.908;6.916;2023-05-07T02:45:36;15.80;89.20
76263;DHT22;65080;50.908;6.916;2023-05-07T02:48:06;15.80;89.40
76263;DHT22;65080;50.908;6.916;2023-05-07T02:50:35;15.80;89.40
76263;DHT22;65080;50.908;6.916;2023-05-07T02:53:04;15.80;89.40
76263;DHT22;65080;50.908;6.916;2023-05-07T02:55:33;15.70;89.30
76263;DHT22;65080;50.908;6.916;2023-05-07T02:58:02;15.80;89.30
76263;DHT22;65080;50.908;6.916;2023-05-07T03:00:30;15.80;89.40
76263;DHT22;65080;50.908;6.916;2023-05-07T03:02:59;15.80;89.50
76263;DHT22;65080;50.908;6.916;2023-05-07T03:05:28;15.80;89.50
76263;DHT22;65080;50.908;6.916;2023-05-07T03:07:57;15.80;89.50
76263;DHT22;65080;50.908;6.916;2023-05-07T03:10:25;15.80;89.50
76263;DHT22;65080;50.908;6.916;2023-05-07T03:12:53;15.80;89.50
76263;DHT22;65080;50.908;6.916;2023-05-07T03:15:22;15.70;89.20
76263;DHT22;65080;50.908;6.916;2023-05-07T03:17:51;15.70;89.20
76263;DHT22;65080;50.908;6.916;2023-05-07T03:20:19;15.70;89.30
76263;DHT22;65080;50.908;6.916;2023-05-07T03:22:49;15.70;89.30
76263;DHT22;65080;50.908;6.916;2023-05-07T03:25:17;15.70;89.30
76263;DHT22;65080;50.908;6.916;2023-05-07T03:27:46;15.70;89.30
76263;DHT22;65080;50.908;6.916;2023-05-07T03:30:14;15.70;89.20
76263;DHT22;65080;50.908;6.916;2023-05-07T03:32:43;15.70;89.30
76263;DHT22;65080;50.908;6.916;2023-05-07T03:35:11;15.70;89.30
76263;DHT22;65080;50.908;6.916;2023-05-07T03:37:40;15.70;89.90
76263;DHT22;65080;50.908;6.916;2023-05-07T03:40:10;15.60;89.20
76263;DHT22;65080;50.908;6.916;2023-05-07T03:42:41;15.60;89.20
76263;DHT22;65080;50.908;6.916;2023-05-07T03:45:09;15.60;89.20
76263;DHT22;65080;50.908;6.916;2023-05-07T03:47:38;15.60;89.30
76263;DHT22;65080;50.908;6.916;2023-05-07T03:50:06;15.60;89.40
76263;DHT22;65080;50.908;6.916;2023-05-07T03:52:35;15.60;89.40
76263;DHT22;65080;50.908;6.916;2023-05-07T03:55:04;15.40;89.30
76263;DHT22;65080;50.908;6.916;2023-05-07T03:57:34;15.50;89.40
76263;DHT22;65080;50.908;6.916;2023-05-07T04:00:03;15.50;89.40
76263;DHT22;65080;50.908;6.916;2023-05-07T04:02:33;15.50;89.30
76263;DHT22;65080;50.908;6.916;2023-05-07T04:05:01;15.50;89.30
76263;DHT22;65080;50.908;6.916;2023-05-07T04:07:29;15.40;89.30
76263;DHT22;65080;50.908;6.916;2023-05-07T04:09:58;15.40;89.40
76263;DHT22;65080;50.908;6.916;2023-05-07T04:12:26;15.40;89.40
76263;DHT22;65080;50.908;6.916;2023-05-07T04:14:55;15.40;89.50
76263;DHT22;65080;50.908;6.916;2023-05-07T04:17:24;15.40;89.60
76263;DHT22;65080;50.908;6.916;2023-05-07T04:19:52;15.40;90.10
76263;DHT22;65080;50.908;6.916;2023-05-07T04:22:21;15.40;89.70
76263;DHT22;65080;50.908;6.916;2023-05-07T04:24:49;15.40;89.90
76263;DHT22;65080;50.908;6.916;2023-05-07T04:27:18;15.40;90.00
76263;DHT22;65080;50.908;6.916;2023-05-07T04:29:47;15.40;90.00
76263;DHT22;65080;50.908;6.916;2023-05-07T04:32:17;15.40;90.00
76263;DHT22;65080;50.908;6.916;2023-05-07T04:34:45;15.40;89.90
76263;DHT22;65080;50.908;6.916;2023-05-07T04:37:16;15.50;90.20
76263;DHT22;65080;50.908;6.916;2023-05-07T04:39:45;15.50;90.00
76263;DHT22;65080;50.908;6.916;2023-05-07T04:42:15;15.50;90.10
76263;DHT22;65080;50.908;6.916;2023-05-07T04:44:44;15.50;90.10
76263;DHT22;65080;50.908;6.916;2023-05-07T04:47:13;15.60;90.10
76263;DHT22;65080;50.908;6.916;2023-05-07T04:49:42;15.60;90.40
76263;DHT22;65080;50.908;6.916;2023-05-07T04:52:11;15.60;90.10
76263;DHT22;65080;50.908;6.916;2023-05-07T04:54:39;15.60;90.00
76263;DHT22;65080;50.908;6.916;2023-05-07T04:57:07;15.70;90.00
76263;DHT22;65080;50.908;6.916;2023-05-07T04:59:35;15.70;90.10
76263;DHT22;65080;50.908;6.916;2023-05-07T05:02:04;15.70;90.00
76263;DHT22;65080;50.908;6.916;2023-05-07T05:04:32;15.70;90.00
76263;DHT22;65080;50.908;6.916;2023-05-07T05:07:02;15.80;90.00
76263;DHT22;65080;50.908;6.916;2023-05-07T05:09:31;15.70;89.80
76263;DHT22;65080;50.908;6.916;2023-05-07T05:12:00;15.80;89.80
76263;DHT22;65080;50.908;6.916;2023-05-07T05:14:29;15.80;89.60
76263;DHT22;65080;50.908;6.916;2023-05-07T05:16:58;15.80;90.00
76263;DHT22;65080;50.908;6.916;2023-05-07T05:19:26;15.90;89.40
76263;DHT22;65080;50.908;6.916;2023-05-07T05:21:55;15.90;89.10
76263;DHT22;65080;50.908;6.916;2023-05-07T05:24:24;15.90;88.90
76263;DHT22;65080;50.908;6.916;2023-05-07T05:26:53;16.00;89.30
76263;DHT22;65080;50.908;6.916;2023-05-07T05:29:21;16.00;88.50
76263;DHT22;65080;50.908;6.916;2023-05-07T05:31:50;16.00;88.40
76263;DHT22;65080;50.908;6.916;2023-05-07T05:34:18;16.00;88.20
76263;DHT22;65080;50.908;6.916;2023-05-07T05:36:48;16.10;88.00
76263;DHT22;65080;50.908;6.916;2023-05-07T05:39:17;16.10;87.80
76263;DHT22;65080;50.908;6.916;2023-05-07T05:41:47;16.20;87.60
76263;DHT22;65080;50.908;6.916;2023-05-07T05:44:15;16.20;87.40
76263;DHT22;65080;50.908;6.916;2023-05-07T05:46:43;16.20;87.20
76263;DHT22;65080;50.908;6.916;2023-05-07T05:49:12;16.30;87.10
76263;DHT22;65080;50.908;6.916;2023-05-07T05:51:40;16.30;86.90
76263;DHT22;65080;50.908;6.916;2023-05-07T05:54:08;16.30;86.80
76263;DHT22;65080;50.908;6.916;2023-05-07T05:56:37;16.40;86.80
76263;DHT22;65080;50.908;6.916;2023-05-07T05:59:07;16.40;86.60
76263;DHT22;65080;50.908;6.916;2023-05-07T06:01:35;16.50;86.40
76263;DHT22;65080;50.908;6.916;2023-05-07T06:04:04;16.50;86.00
76263;DHT22;65080;50.908;6.916;2023-05-07T06:06:32;16.60;85.80
76263;DHT22;65080;50.908;6.916;2023-05-07T06:09:01;16.60;85.60
76263;DHT22;65080;50.908;6.916;2023-05-07T06:11:29;16.60;85.50
76263;DHT22;65080;50.908;6.916;2023-05-07T06:13:57;16.70;85.40
76263;DHT22;65080;50.908;6.916;2023-05-07T06:16:27;16.70;85.20
76263;DHT22;65080;50.908;6.916;2023-05-07T06:18:56;16.80;85.00
76263;DHT22;65080;50.908;6.916;2023-05-07T06:21:24;16.80;85.40
76263;DHT22;65080;50.908;6.916;2023-05-07T06:23:52;16.80;84.40
76263;DHT22;65080;50.908;6.916;2023-05-07T06:26:21;16.90;84.10
76263;DHT22;65080;50.908;6.916;2023-05-07T06:28:50;16.90;83.90
76263;DHT22;65080;50.908;6.916;2023-05-07T06:31:19;17.00;83.90
76263;DHT22;65080;50.908;6.916;2023-05-07T06:33:50;17.10;84.10
76263;DHT22;65080;50.908;6.916;2023-05-07T06:36:18;17.10;83.80
76263;DHT22;65080;50.908;6.916;2023-05-07T06:38:46;17.20;83.60
76263;DHT22;65080;50.908;6.916;2023-05-07T06:41:15;17.20;83.30
76263;DHT22;65080;50.908;6.916;2023-05-07T06:43:43;17.40;83.10
76263;DHT22;65080;50.908;6.916;2023-05-07T06:46:11;17.30;82.40
76263;DHT22;65080;50.908;6.916;2023-05-07T06:48:44;17.40;82.00
76263;DHT22;65080;50.908;6.916;2023-05-07T06:51:14;17.40;81.60
76263;DHT22;65080;50.908;6.916;2023-05-07T06:53:43;17.40;81.60
76263;DHT22;65080;50.908;6.916;2023-05-07T06:56:11;17.50;81.40
76263;DHT22;65080;50.908;6.916;2023-05-07T06:58:39;17.50;80.90
76263;DHT22;65080;50.908;6.916;2023-05-07T07:01:08;17.60;80.70
76263;DHT22;65080;50.908;6.916;2023-05-07T07:03:36;17.60;80.30
76263;DHT22;65080;50.908;6.916;2023-05-07T07:06:05;17.70;79.80
76263;DHT22;65080;50.908;6.916;2023-05-07T07:08:35;17.70;79.50
76263;DHT22;65080;50.908;6.916;2023-05-07T07:11:06;17.70;79.20
76263;DHT22;65080;50.908;6.916;2023-05-07T07:13:34;17.70;79.10
76263;DHT22;65080;50.908;6.916;2023-05-07T07:16:02;17.80;79.00
76263;DHT22;65080;50.908;6.916;2023-05-07T07:18:31;17.80;78.50
76263;DHT22;65080;50.908;6.916;2023-05-07T07:20:59;17.80;78.20
76263;DHT22;65080;50.908;6.916;2023-05-07T07:23:27;17.80;77.90
76263;DHT22;65080;50.908;6.916;2023-05-07T07:25:58;17.80;77.80
76263;DHT22;65080;50.908;6.916;2023-05-07T07:28:26;17.90;77.70
76263;DHT22;65080;50.908;6.916;2023-05-07T07:30:55;17.90;77.10
76263;DHT22;65080;50.908;6.916;2023-05-07T07:33:23;17.90;76.70
76263;DHT22;65080;50.908;6.916;2023-05-07T07:35:52;18.00;76.60
76263;DHT22;65080;50.908;6.916;2023-05-07T07:38:20;18.00;76.50
76263;DHT22;65080;50.908;6.916;2023-05-07T07:40:48;18.00;76.30
76263;DHT22;65080;50.908;6.916;2023-05-07T07:43:18;18.10;76.20
76263;DHT22;65080;50.908;6.916;2023-05-07T07:45:47;18.10;75.90
76263;DHT22;65080;50.908;6.916;2023-05-07T07:48:15;18.20;75.70
76263;DHT22;65080;50.908;6.916;2023-05-07T07:50:43;18.20;75.50
76263;DHT22;65080;50.908;6.916;2023-05-07T07:53:13;18.30;75.60
76263;DHT22;65080;50.908;6.916;2023-05-07T07:55:48;18.50;75.60
76263;DHT22;65080;50.908;6.916;2023-05-07T07:58:18;18.40;75.40
76263;DHT22;65080;50.908;6.916;2023-05-07T08:00:46;18.50;75.50
76263;DHT22;65080;50.908;6.916;2023-05-07T08:03:15;18.60;75.50
76263;DHT22;65080;50.908;6.916;2023-05-07T08:05:43;18.60;75.30
76263;DHT22;65080;50.908;6.916;2023-05-07T08:08:12;18.80;75.00
76263;DHT22;65080;50.908;6.916;2023-05-07T08:10:40;18.80;74.30
76263;DHT22;65080;50.908;6.916;2023-05-07T08:13:08;18.90;73.90
76263;DHT22;65080;50.908;6.916;2023-05-07T08:15:38;18.90;73.60
76263;DHT22;65080;50.908;6.916;2023-05-07T08:18:07;18.90;73.30
76263;DHT22;65080;50.908;6.916;2023-05-07T08:20:35;19.00;73.20
76263;DHT22;65080;50.908;6.916;2023-05-07T08:23:06;19.00;73.00
76263;DHT22;65080;50.908;6.916;2023-05-07T08:25:35;19.10;72.90
76263;DHT22;65080;50.908;6.916;2023-05-07T08:28:04;19.20;72.80
76263;DHT22;65080;50.908;6.916;2023-05-07T08:30:35;19.20;72.50
76263;DHT22;65080;50.908;6.916;2023-05-07T08:33:05;19.20;72.40
76263;DHT22;65080;50.908;6.916;2023-05-07T08:35:34;19.30;72.40
76263;DHT22;65080;50.908;6.916;2023-05-07T08:38:02;19.40;72.40
76263;DHT22;65080;50.908;6.916;2023-05-07T08:40:36;19.40;72.00
76263;DHT22;65080;50.908;6.916;2023-05-07T08:43:06;19.50;71.60
76263;DHT22;65080;50.908;6.916;2023-05-07T08:45:34;19.60;71.40
76263;DHT22;65080;50.908;6.916;2023-05-07T08:48:08;19.50;70.70
76263;DHT22;65080;50.908;6.916;2023-05-07T08:50:37;19.60;70.00
76263;DHT22;65080;50.908;6.916;2023-05-07T08:53:06;19.60;69.80
76263;DHT22;65080;50.908;6.916;2023-05-07T08:55:34;19.80;69.80
76263;DHT22;65080;50.908;6.916;2023-05-07T08:58:03;19.70;69.40
76263;DHT22;65080;50.908;6.916;2023-05-07T09:00:32;19.70;69.00
76263;DHT22;65080;50.908;6.916;2023-05-07T09:03:00;19.80;68.90
76263;DHT22;65080;50.908;6.916;2023-05-07T09:05:31;19.90;69.10
76263;DHT22;65080;50.908;6.916;2023-05-07T09:07:59;19.90;69.10
76263;DHT22;65080;50.908;6.916;2023-05-07T09:10:29;20.00;69.20
76263;DHT22;65080;50.908;6.916;2023-05-07T09:12:58;20.10;68.80
76263;DHT22;65080;50.908;6.916;2023-05-07T09:15:48;20.10;68.10
76263;DHT22;65080;50.908;6.916;2023-05-07T09:18:16;20.20;67.50
76263;DHT22;65080;50.908;6.916;2023-05-07T09:20:46;20.20;67.80
76263;DHT22;65080;50.908;6.916;2023-05-07T09:23:14;20.30;67.50
76263;DHT22;65080;50.908;6.916;2023-05-07T09:25:42;20.30;67.20
76263;DHT22;65080;50.908;6.916;2023-05-07T09:28:11;20.40;66.60
76263;DHT22;65080;50.908;6.916;2023-05-07T09:30:39;20.50;66.20
76263;DHT22;65080;50.908;6.916;2023-05-07T09:33:08;20.50;65.70
76263;DHT22;65080;50.908;6.916;2023-05-07T09:35:37;20.60;65.40
76263;DHT22;65080;50.908;6.916;2023-05-07T09:38:08;20.60;65.20
76263;DHT22;65080;50.908;6.916;2023-05-07T09:40:36;20.60;65.30
76263;DHT22;65080;50.908;6.916;2023-05-07T09:43:11;20.70;65.60
76263;DHT22;65080;50.908;6.916;2023-05-07T09:45:41;20.80;64.80
76263;DHT22;65080;50.908;6.916;2023-05-07T09:48:10;20.90;64.30
76263;DHT22;65080;50.908;6.916;2023-05-07T09:50:45;20.90;64.00
76263;DHT22;65080;50.908;6.916;2023-05-07T09:53:17;21.10;64.00
76263;DHT22;65080;50.908;6.916;2023-05-07T09:55:46;21.20;63.90
76263;DHT22;65080;50.908;6.916;2023-05-07T09:58:15;21.30;64.00
76263;DHT22;65080;50.908;6.916;2023-05-07T10:00:44;21.30;63.80
76263;DHT22;65080;50.908;6.916;2023-05-07T10:03:15;21.30;63.30
76263;DHT22;65080;50.908;6.916;2023-05-07T10:05:44;21.40;62.80
76263;DHT22;65080;50.908;6.916;2023-05-07T10:08:14;21.40;62.30
76263;DHT22;65080;50.908;6.916;2023-05-07T10:10:45;21.40;61.70
76263;DHT22;65080;50.908;6.916;2023-05-07T10:13:14;21.50;61.10
76263;DHT22;65080;50.908;6.916;2023-05-07T10:15:44;21.50;60.80
76263;DHT22;65080;50.908;6.916;2023-05-07T10:18:14;21.60;60.70
76263;DHT22;65080;50.908;6.916;2023-05-07T10:20:45;21.70;60.70
76263;DHT22;65080;50.908;6.916;2023-05-07T10:23:19;21.70;60.40
76263;DHT22;65080;50.908;6.916;2023-05-07T10:25:53;21.80;60.10
76263;DHT22;65080;50.908;6.916;2023-05-07T10:28:27;21.90;59.90
76263;DHT22;65080;50.908;6.916;2023-05-07T10:31:05;22.00;59.70
76263;DHT22;65080;50.908;6.916;2023-05-07T10:33:36;22.00;59.40
76263;DHT22;65080;50.908;6.916;2023-05-07T10:36:05;22.10;59.50
76263;DHT22;65080;50.908;6.916;2023-05-07T10:38:35;22.10;59.40
76263;DHT22;65080;50.908;6.916;2023-05-07T10:41:06;22.10;59.40
76263;DHT22;65080;50.908;6.916;2023-05-07T10:43:44;22.30;59.40
76263;DHT22;65080;50.908;6.916;2023-05-07T10:46:16;22.40;59.30
76263;DHT22;65080;50.908;6.916;2023-05-07T10:49:06;22.50;59.30
76263;DHT22;65080;50.908;6.916;2023-05-07T10:51:35;22.60;59.10
76263;DHT22;65080;50.908;6.916;2023-05-07T10:54:27;22.70;59.20
76263;DHT22;65080;50.908;6.916;2023-05-07T10:57:32;22.90;58.60
76263;DHT22;65080;50.908;6.916;2023-05-07T11:00:03;23.00;58.30
76263;DHT22;65080;50.908;6.916;2023-05-07T11:03:04;23.10;58.50
76263;DHT22;65080;50.908;6.916;2023-05-07T11:05:39;23.10;57.70
76263;DHT22;65080;50.908;6.916;2023-05-07T11:08:09;23.20;57.80
76263;DHT22;65080;50.908;6.916;2023-05-07T11:10:51;23.30;57.40
76263;DHT22;65080;50.908;6.916;2023-05-07T11:13:43;23.30;57.40
76263;DHT22;65080;50.908;6.916;2023-05-07T11:16:19;23.40;57.10
76263;DHT22;65080;50.908;6.916;2023-05-07T11:18:49;23.50;56.90
76263;DHT22;65080;50.908;6.916;2023-05-07T11:21:32;23.70;56.70
76263;DHT22;65080;50.908;6.916;2023-05-07T11:24:02;23.80;55.70
76263;DHT22;65080;50.908;6.916;2023-05-07T11:26:41;24.00;56.10
76263;DHT22;65080;50.908;6.916;2023-05-07T11:29:13;24.10;54.80
76263;DHT22;65080;50.908;6.916;2023-05-07T11:31:42;24.20;54.10
76263;DHT22;65080;50.908;6.916;2023-05-07T11:34:11;24.20;53.40
76263;DHT22;65080;50.908;6.916;2023-05-07T11:36:43;24.20;52.80
76263;DHT22;65080;50.908;6.916;2023-05-07T11:39:32;24.20;51.90
76263;DHT22;65080;50.908;6.916;2023-05-07T11:42:03;24.20;51.10
76263;DHT22;65080;50.908;6.916;2023-05-07T11:44:43;24.10;51.40
76263;DHT22;65080;50.908;6.916;2023-05-07T11:47:17;24.10;50.70
76263;DHT22;65080;50.908;6.916;2023-05-07T11:49:47;24.00;50.70
76263;DHT22;65080;50.908;6.916;2023-05-07T11:52:17;24.00;51.00
76263;DHT22;65080;50.908;6.916;2023-05-07T11:54:49;24.00;51.00
76263;DHT22;65080;50.908;6.916;2023-05-07T11:57:18;23.90;50.90
76263;DHT22;65080;50.908;6.916;2023-05-07T11:59:48;23.90;51.00
76263;DHT22;65080;50.908;6.916;2023-05-07T12:02:20;23.80;50.90
76263;DHT22;65080;50.908;6.916;2023-05-07T12:04:49;23.80;51.20
76263;DHT22;65080;50.908;6.916;2023-05-07T12:07:18;23.80;51.10
76263;DHT22;65080;50.908;6.916;2023-05-07T12:09:47;23.80;51.10
76263;DHT22;65080;50.908;6.916;2023-05-07T12:12:15;23.70;50.90
76263;DHT22;65080;50.908;6.916;2023-05-07T12:14:45;23.70;50.80
76263;DHT22;65080;50.908;6.916;2023-05-07T12:17:16;23.70;51.00
76263;DHT22;65080;50.908;6.916;2023-05-07T12:19:45;23.70;51.00
76263;DHT22;65080;50.908;6.916;2023-05-07T12:22:14;23.70;51.10
76263;DHT22;65080;50.908;6.916;2023-05-07T12:24:46;23.60;51.10
76263;DHT22;65080;50.908;6.916;2023-05-07T12:27:16;23.60;50.90
76263;DHT22;65080;50.908;6.916;2023-05-07T12:29:45;23.60;50.90
76263;DHT22;65080;50.908;6.916;2023-05-07T12:32:16;23.60;51.00
76263;DHT22;65080;50.908;6.916;2023-05-07T12:34:46;23.50;51.00
76263;DHT22;65080;50.908;6.916;2023-05-07T12:37:14;23.50;51.10
76263;DHT22;65080;50.908;6.916;2023-05-07T12:39:47;23.50;51.20
76263;DHT22;65080;50.908;6.916;2023-05-07T12:42:16;23.50;51.10
76263;DHT22;65080;50.908;6.916;2023-05-07T12:44:50;23.50;51.30
76263;DHT22;65080;50.908;6.916;2023-05-07T12:47:20;23.40;51.40
76263;DHT22;65080;50.908;6.916;2023-05-07T12:49:49;23.40;52.20
76263;DHT22;65080;50.908;6.916;2023-05-07T12:52:17;23.40;53.50
76263;DHT22;65080;50.908;6.916;2023-05-07T12:54:46;23.30;55.00
76263;DHT22;65080;50.908;6.916;2023-05-07T12:57:19;23.30;56.10
76263;DHT22;65080;50.908;6.916;2023-05-07T12:59:48;23.20;56.40
76263;DHT22;65080;50.908;6.916;2023-05-07T13:02:17;23.10;56.90
76263;DHT22;65080;50.908;6.916;2023-05-07T13:04:46;23.00;57.80
76263;DHT22;65080;50.908;6.916;2023-05-07T13:07:15;22.90;58.90
76263;DHT22;65080;50.908;6.916;2023-05-07T13:09:43;22.80;59.50
76263;DHT22;65080;50.908;6.916;2023-05-07T13:12:11;22.70;60.40
76263;DHT22;65080;50.908;6.916;2023-05-07T13:14:40;22.70;61.50
76263;DHT22;65080;50.908;6.916;2023-05-07T13:17:08;22.60;62.60
76263;DHT22;65080;50.908;6.916;2023-05-07T13:19:37;22.50;63.00
76263;DHT22;65080;50.908;6.916;2023-05-07T13:22:06;22.40;62.90
76263;DHT22;65080;50.908;6.916;2023-05-07T13:24:35;22.50;63.60
76263;DHT22;65080;50.908;6.916;2023-05-07T13:27:04;22.40;64.20
76263;DHT22;65080;50.908;6.916;2023-05-07T13:29:32;22.40;64.80
76263;DHT22;65080;50.908;6.916;2023-05-07T13:32:01;22.30;64.90
76263;DHT22;65080;50.908;6.916;2023-05-07T13:34:29;22.30;65.10
76263;DHT22;65080;50.908;6.916;2023-05-07T13:36:57;22.20;65.30
76263;DHT22;65080;50.908;6.916;2023-05-07T13:39:27;22.10;64.00
76263;DHT22;65080;50.908;6.916;2023-05-07T13:41:56;22.00;63.50
76263;DHT22;65080;50.908;6.916;2023-05-07T13:44:24;22.00;63.20
76263;DHT22;65080;50.908;6.916;2023-05-07T13:46:52;22.00;63.30
76263;DHT22;65080;50.908;6.916;2023-05-07T13:49:21;21.90;63.70
76263;DHT22;65080;50.908;6.916;2023-05-07T13:51:50;22.00;64.40
76263;DHT22;65080;50.908;6.916;2023-05-07T13:54:18;22.00;65.50
76263;DHT22;65080;50.908;6.916;2023-05-07T13:56:48;22.10;65.10
76263;DHT22;65080;50.908;6.916;2023-05-07T13:59:16;22.10;65.20
76263;DHT22;65080;50.908;6.916;2023-05-07T14:01:44;22.20;65.80
76263;DHT22;65080;50.908;6.916;2023-05-07T14:04:13;22.30;65.90
76263;DHT22;65080;50.908;6.916;2023-05-07T14:06:41;22.40;65.90
76263;DHT22;65080;50.908;6.916;2023-05-07T14:09:09;22.40;65.60
76263;DHT22;65080;50.908;6.916;2023-05-07T14:11:40;22.40;65.30
76263;DHT22;65080;50.908;6.916;2023-05-07T14:14:10;22.40;65.50
76263;DHT22;65080;50.908;6.916;2023-05-07T14:16:38;22.40;65.60
76263;DHT22;65080;50.908;6.916;2023-05-07T14:19:07;22.40;66.00
76263;DHT22;65080;50.908;6.916;2023-05-07T14:21:35;22.40;66.30
76263;DHT22;65080;50.908;6.916;2023-05-07T14:24:03;22.30;65.90
76263;DHT22;65080;50.908;6.916;2023-05-07T14:26:32;22.30;65.60
76263;DHT22;65080;50.908;6.916;2023-05-07T14:29:00;22.10;65.30
76263;DHT22;65080;50.908;6.916;2023-05-07T14:31:33;22.20;65.30
76263;DHT22;65080;50.908;6.916;2023-05-07T14:34:01;22.10;65.20
76263;DHT22;65080;50.908;6.916;2023-05-07T14:36:30;22.00;65.00
76263;DHT22;65080;50.908;6.916;2023-05-07T14:38:59;22.00;64.90
76263;DHT22;65080;50.908;6.916;2023-05-07T14:41:27;22.00;64.80
76263;DHT22;65080;50.908;6.916;2023-05-07T14:43:55;21.90;64.60
76263;DHT22;65080;50.908;6.916;2023-05-07T14:46:25;21.90;64.80
76263;DHT22;65080;50.908;6.916;2023-05-07T14:48:56;21.90;65.10
76263;DHT22;65080;50.908;6.916;2023-05-07T14:51:24;21.90;65.40
76263;DHT22;65080;50.908;6.916;2023-05-07T14:53:55;21.90;65.80
76263;DHT22;65080;50.908;6.916;2023-05-07T14:56:23;21.90;66.50
76263;DHT22;65080;50.908;6.916;2023-05-07T14:58:51;21.90;67.00
76263;DHT22;65080;50.908;6.916;2023-05-07T15:01:20;21.90;67.10
76263;DHT22;65080;50.908;6.916;2023-05-07T15:03:48;21.80;67.30
76263;DHT22;65080;50.908;6.916;2023-05-07T15:06:19;21.70;68.20
76263;DHT22;65080;50.908;6.916;2023-05-07T15:08:47;21.60;68.80
76263;DHT22;65080;50.908;6.916;2023-05-07T15:11:15;21.40;69.50
76263;DHT22;65080;50.908;6.916;2023-05-07T15:13:44;21.30;70.50
76263;DHT22;65080;50.908;6.916;2023-05-07T15:16:12;21.20;71.10
76263;DHT22;65080;50.908;6.916;2023-05-07T15:18:41;21.20;71.30
76263;DHT22;65080;50.908;6.916;2023-05-07T15:21:09;21.20;71.10
76263;DHT22;65080;50.908;6.916;2023-05-07T15:23:39;21.10;70.60
76263;DHT22;65080;50.908;6.916;2023-05-07T15:26:08;21.20;70.40
76263;DHT22;65080;50.908;6.916;2023-05-07T15:28:36;21.20;70.20
76263;DHT22;65080;50.908;6.916;2023-05-07T15:31:06;21.30;70.10
76263;DHT22;65080;50.908;6.916;2023-05-07T15:33:36;21.40;69.80
76263;DHT22;65080;50.908;6.916;2023-05-07T15:36:05;21.50;69.60
76263;DHT22;65080;50.908;6.916;2023-05-07T15:38:34;21.50;69.20
76263;DHT22;65080;50.908;6.916;2023-05-07T15:41:03;21.60;69.10
76263;DHT22;65080;50.908;6.916;2023-05-07T15:43:32;21.70;68.90
76263;DHT22;65080;50.908;6.916;2023-05-07T15:46:00;21.90;68.60